sensor_id;sensor_type;location;lat;lon;timestamp;temperature;humidity
262;DHT22;114;48.260;10.988;2022-09-30T00:01:49;7.80;99.90
262;DHT22;114;48.260;10.988;2022-09-30T00:04:22;7.70;99.90
262;DHT22;114;48.260;10.988;2022-09-30T00:06:53;7.70;99.90
262;DHT22;114;48.260;10.988;2022-09-30T00:09:19;7.60;99.90
262;DHT22;114;48.260;10.988;2022-09-30T00:11:46;7.50;99.90
262;DHT22;114;48.260;10.988;2022-09-30T00:14:16;7.50;99.90
262;DHT22;114;48.260;10.988;2022-09-30T00:16:42;7.50;99.90
262;DHT22;114;48.260;10.988;2022-09-30T00:19:09;7.50;99.90
262;DHT22;114;48.260;10.988;2022-09-30T00:21:40;7.50;99.90
262;DHT22;114;48.260;10.988;2022-09-30T00:24:12;7.40;99.90
262;DHT22;114;48.260;10.988;2022-09-30T00:26:38;7.30;99.90
262;DHT22;114;48.260;10.988;2022-09-30T00:29:05;7.20;99.90
262;DHT22;114;48.260;10.988;2022-09-30T00:31:33;7.20;99.90
262;DHT22;114;48.260;10.988;2022-09-30T00:33:59;7.20;99.90
262;DHT22;114;48.260;10.988;2022-09-30T00:36:51;7.20;99.90
262;DHT22;114;48.260;10.988;2022-09-30T00:39:28;7.20;99.90
262;DHT22;114;48.260;10.988;2022-09-30T00:42:03;7.20;99.90
262;DHT22;114;48.260;10.988;2022-09-30T00:47:53;7.10;99.90
262;DHT22;114;48.260;10.988;2022-09-30T00:50:39;7.10;99.90
262;DHT22;114;48.260;10.988;2022-09-30T00:56:15;7.00;99.90
262;DHT22;114;48.260;10.988;2022-09-30T00:59:02;7.00;99.90
262;DHT22;114;48.260;10.988;2022-09-30T01:01:53;7.00;99.90
262;DHT22;114;48.260;10.988;2022-09-30T01:04:21;7.00;99.90
262;DHT22;114;48.260;10.988;2022-09-30T01:06:48;7.10;99.90
262;DHT22;114;48.260;10.988;2022-09-30T01:09:15;7.10;99.90
262;DHT22;114;48.260;10.988;2022-09-30T01:11:56;7.10;99.90
262;DHT22;114;48.260;10.988;2022-09-30T01:14:26;7.10;99.90
262;DHT22;114;48.260;10.988;2022-09-30T01:20:16;7.10;99.90
262;DHT22;114;48.260;10.988;2022-09-30T01:43:10;7.00;99.90
262;DHT22;114;48.260;10.988;2022-09-30T01:46:15;7.00;99.90
262;DHT22;114;48.260;10.988;2022-09-30T01:58:18;7.00;99.90
262;DHT22;114;48.260;10.988;2022-09-30T02:00:57;6.90;99.90
262;DHT22;114;48.260;10.988;2022-09-30T02:03:30;7.00;99.90
262;DHT22;114;48.260;10.988;2022-09-30T02:06:43;7.00;99.90
262;DHT22;114;48.260;10.988;2022-09-30T02:09:25;7.00;99.90
262;DHT22;114;48.260;10.988;2022-09-30T02:11:53;7.00;99.90
262;DHT22;114;48.260;10.988;2022-09-30T02:20:25;7.00;99.90
262;DHT22;114;48.260;10.988;2022-09-30T02:23:16;7.00;99.90
262;DHT22;114;48.260;10.988;2022-09-30T02:25:47;7.10;99.90
262;DHT22;114;48.260;10.988;2022-09-30T02:28:38;7.10;99.90
262;DHT22;114;48.260;10.988;2022-09-30T02:31:07;7.20;99.90
262;DHT22;114;48.260;10.988;2022-09-30T02:33:59;7.20;99.90
262;DHT22;114;48.260;10.988;2022-09-30T02:37:13;7.20;99.90
262;DHT22;114;48.260;10.988;2022-09-30T02:39:47;7.20;99.90
262;DHT22;114;48.260;10.988;2022-09-30T02:42:26;7.20;99.90
262;DHT22;114;48.260;10.988;2022-09-30T02:44:55;7.20;99.90
262;DHT22;114;48.260;10.988;2022-09-30T02:58:26;7.30;99.90
262;DHT22;114;48.260;10.988;2022-09-30T03:01:37;7.30;99.90
262;DHT22;114;48.260;10.988;2022-09-30T03:04:17;7.30;99.90
262;DHT22;114;48.260;10.988;2022-09-30T03:07:02;7.30;99.90
262;DHT22;114;48.260;10.988;2022-09-30T03:09:57;7.40;99.90
262;DHT22;114;48.260;10.988;2022-09-30T03:13:20;7.40;99.90
262;DHT22;114;48.260;10.988;2022-09-30T03:19:05;7.50;99.90
262;DHT22;114;48.260;10.988;2022-09-30T03:30:26;7.40;99.90
262;DHT22;114;48.260;10.988;2022-09-30T03:39:24;7.50;99.90
262;DHT22;114;48.260;10.988;2022-09-30T03:42:13;7.50;99.90
262;DHT22;114;48.260;10.988;2022-09-30T03:44:57;7.50;99.90
262;DHT22;114;48.260;10.988;2022-09-30T03:47:25;7.50;99.90
262;DHT22;114;48.260;10.988;2022-09-30T03:50:09;7.50;99.90
262;DHT22;114;48.260;10.988;2022-09-30T03:53:14;7.60;99.90
262;DHT22;114;48.260;10.988;2022-09-30T03:56:04;7.60;99.90
262;DHT22;114;48.260;10.988;2022-09-30T03:58:30;7.60;99.90
262;DHT22;114;48.260;10.988;2022-09-30T04:00:56;7.50;99.90
262;DHT22;114;48.260;10.988;2022-09-30T04:03:25;7.60;99.90
262;DHT22;114;48.260;10.988;2022-09-30T04:05:56;7.60;99.90
262;DHT22;114;48.260;10.988;2022-09-30T04:08:22;7.60;99.90
262;DHT22;114;48.260;10.988;2022-09-30T04:10:48;7.60;99.90
262;DHT22;114;48.260;10.988;2022-09-30T04:13:28;7.60;99.90
262;DHT22;114;48.260;10.988;2022-09-30T04:15:54;7.50;99.90
262;DHT22;114;48.260;10.988;2022-09-30T04:18:43;7.60;99.90
262;DHT22;114;48.260;10.988;2022-09-30T04:21:13;7.60;99.90
262;DHT22;114;48.260;10.988;2022-09-30T04:23:40;7.60;99.90
262;DHT22;114;48.260;10.988;2022-09-30T04:26:08;7.50;99.90
262;DHT22;114;48.260;10.988;2022-09-30T04:28:42;7.50;99.90
262;DHT22;114;48.260;10.988;2022-09-30T04:31:13;7.40;99.90
262;DHT22;114;48.260;10.988;2022-09-30T04:33:48;7.40;99.90
262;DHT22;114;48.260;10.988;2022-09-30T04:36:17;7.30;99.90
262;DHT22;114;48.260;10.988;2022-09-30T04:38:43;7.30;99.90
262;DHT22;114;48.260;10.988;2022-09-30T04:41:13;7.30;99.90
262;DHT22;114;48.260;10.988;2022-09-30T04:43:43;7.20;99.90
262;DHT22;114;48.260;10.988;2022-09-30T04:46:29;7.20;99.90
262;DHT22;114;48.260;10.988;2022-09-30T04:48:54;7.20;99.90
262;DHT22;114;48.260;10.988;2022-09-30T04:51:20;7.20;99.90
262;DHT22;114;48.260;10.988;2022-09-30T04:53:50;7.10;99.90
262;DHT22;114;48.260;10.988;2022-09-30T04:56:20;7.10;99.90
262;DHT22;114;48.260;10.988;2022-09-30T04:58:52;7.00;99.90
262;DHT22;114;48.260;10.988;2022-09-30T05:01:41;7.10;99.90
262;DHT22;114;48.260;10.988;2022-09-30T05:04:08;7.10;99.90
262;DHT22;114;48.260;10.988;2022-09-30T05:06:59;7.10;99.90
262;DHT22;114;48.260;10.988;2022-09-30T05:09:27;7.10;99.90
262;DHT22;114;48.260;10.988;2022-09-30T05:12:06;7.10;99.90
262;DHT22;114;48.260;10.988;2022-09-30T05:14:32;7.20;99.90
262;DHT22;114;48.260;10.988;2022-09-30T05:17:03;7.20;99.90
262;DHT22;114;48.260;10.988;2022-09-30T05:19:48;7.10;99.90
262;DHT22;114;48.260;10.988;2022-09-30T05:22:21;7.20;99.90
262;DHT22;114;48.260;10.988;2022-09-30T05:24:52;7.20;99.90
262;DHT22;114;48.260;10.988;2022-09-30T05:27:24;7.20;99.90
262;DHT22;114;48.260;10.988;2022-09-30T05:29:57;7.20;99.90
262;DHT22;114;48.260;10.988;2022-09-30T05:32:25;7.20;99.90
262;DHT22;114;48.260;10.988;2022-09-30T05:34:51;7.30;99.90
262;DHT22;114;48.260;10.988;2022-09-30T05:37:19;7.30;99.90
262;DHT22;114;48.260;10.988;2022-09-30T05:39:44;7.30;99.90
262;DHT22;114;48.260;10.988;2022-09-30T05:42:13;7.20;99.90
262;DHT22;114;48.260;10.988;2022-09-30T05:44:39;7.20;99.90
262;DHT22;114;48.260;10.988;2022-09-30T05:47:06;7.20;99.90
262;DHT22;114;48.260;10.988;2022-09-30T05:49:35;7.30;99.90
262;DHT22;114;48.260;10.988;2022-09-30T05:52:13;7.30;99.90
262;DHT22;114;48.260;10.988;2022-09-30T05:55:18;7.30;99.90
262;DHT22;114;48.260;10.988;2022-09-30T05:58:09;7.30;99.90
262;DHT22;114;48.260;10.988;2022-09-30T06:00:40;7.40;99.90
262;DHT22;114;48.260;10.988;2022-09-30T06:03:06;7.40;99.90
262;DHT22;114;48.260;10.988;2022-09-30T06:05:32;7.40;99.90
262;DHT22;114;48.260;10.988;2022-09-30T06:07:57;7.40;99.90
262;DHT22;114;48.260;10.988;2022-09-30T06:10:23;7.40;99.90
262;DHT22;114;48.260;10.988;2022-09-30T06:12:48;7.40;99.90
262;DHT22;114;48.260;10.988;2022-09-30T06:15:14;7.40;99.90
262;DHT22;114;48.260;10.988;2022-09-30T06:17:40;7.40;99.90
262;DHT22;114;48.260;10.988;2022-09-30T06:20:09;7.40;99.90
262;DHT22;114;48.260;10.988;2022-09-30T06:22:35;7.40;99.90
262;DHT22;114;48.260;10.988;2022-09-30T06:25:05;7.50;99.90
262;DHT22;114;48.260;10.988;2022-09-30T06:27:34;7.40;99.90
262;DHT22;114;48.260;10.988;2022-09-30T06:30:03;7.50;99.90
262;DHT22;114;48.260;10.988;2022-09-30T06:32:29;7.50;99.90
262;DHT22;114;48.260;10.988;2022-09-30T06:34:55;7.50;99.90
262;DHT22;114;48.260;10.988;2022-09-30T06:37:21;7.50;99.90
262;DHT22;114;48.260;10.988;2022-09-30T06:39:48;7.60;99.90
262;DHT22;114;48.260;10.988;2022-09-30T06:42:16;7.70;99.90
262;DHT22;114;48.260;10.988;2022-09-30T06:44:42;7.70;99.90
262;DHT22;114;48.260;10.988;2022-09-30T06:47:09;7.70;99.90
262;DHT22;114;48.260;10.988;2022-09-30T06:49:35;7.80;99.90
262;DHT22;114;48.260;10.988;2022-09-30T06:52:01;7.90;99.90
262;DHT22;114;48.260;10.988;2022-09-30T06:54:27;7.90;99.90
262;DHT22;114;48.260;10.988;2022-09-30T06:56:54;7.90;99.90
262;DHT22;114;48.260;10.988;2022-09-30T06:59:23;7.80;99.90
262;DHT22;114;48.260;10.988;2022-09-30T07:01:49;7.80;99.90
262;DHT22;114;48.260;10.988;2022-09-30T07:04:15;7.80;99.90
262;DHT22;114;48.260;10.988;2022-09-30T07:06:41;7.80;99.90
262;DHT22;114;48.260;10.988;2022-09-30T07:09:08;7.80;99.70
262;DHT22;114;48.260;10.988;2022-09-30T07:11:34;7.80;99.90
262;DHT22;114;48.260;10.988;2022-09-30T07:14:02;7.90;99.90
262;DHT22;114;48.260;10.988;2022-09-30T07:16:29;8.00;99.90
262;DHT22;114;48.260;10.988;2022-09-30T07:19:02;8.10;99.90
262;DHT22;114;48.260;10.988;2022-09-30T07:21:28;8.20;99.90
262;DHT22;114;48.260;10.988;2022-09-30T07:23:56;8.30;99.80
262;DHT22;114;48.260;10.988;2022-09-30T07:26:25;8.30;99.30
262;DHT22;114;48.260;10.988;2022-09-30T07:28:51;8.40;98.60
262;DHT22;114;48.260;10.988;2022-09-30T07:31:20;8.40;98.20
262;DHT22;114;48.260;10.988;2022-09-30T07:33:47;8.40;97.70
262;DHT22;114;48.260;10.988;2022-09-30T07:36:17;8.40;97.10
262;DHT22;114;48.260;10.988;2022-09-30T07:38:45;8.50;98.00
262;DHT22;114;48.260;10.988;2022-09-30T07:41:14;8.40;96.40
262;DHT22;114;48.260;10.988;2022-09-30T07:43:43;8.40;96.30
262;DHT22;114;48.260;10.988;2022-09-30T07:48:41;8.50;95.60
262;DHT22;114;48.260;10.988;2022-09-30T07:51:21;8.50;94.80
262;DHT22;114;48.260;10.988;2022-09-30T07:53:53;8.60;95.10
262;DHT22;114;48.260;10.988;2022-09-30T07:56:20;8.70;94.60
262;DHT22;114;48.260;10.988;2022-09-30T07:58:46;8.80;94.30
262;DHT22;114;48.260;10.988;2022-09-30T08:01:12;8.90;93.50
262;DHT22;114;48.260;10.988;2022-09-30T08:03:40;9.00;91.90
262;DHT22;114;48.260;10.988;2022-09-30T08:06:14;9.00;90.10
262;DHT22;114;48.260;10.988;2022-09-30T08:08:42;9.10;87.70
262;DHT22;114;48.260;10.988;2022-09-30T08:11:12;9.00;85.20
262;DHT22;114;48.260;10.988;2022-09-30T08:13:39;9.20;85.20
262;DHT22;114;48.260;10.988;2022-09-30T08:16:05;9.30;86.10
262;DHT22;114;48.260;10.988;2022-09-30T08:18:32;9.40;81.70
262;DHT22;114;48.260;10.988;2022-09-30T08:21:05;9.50;79.80
262;DHT22;114;48.260;10.988;2022-09-30T08:23:31;9.40;74.90
262;DHT22;114;48.260;10.988;2022-09-30T08:26:02;9.50;76.00
262;DHT22;114;48.260;10.988;2022-09-30T08:28:28;9.60;73.40
262;DHT22;114;48.260;10.988;2022-09-30T08:31:05;9.60;73.60
262;DHT22;114;48.260;10.988;2022-09-30T08:33:31;9.70;73.10
262;DHT22;114;48.260;10.988;2022-09-30T08:36:15;9.90;65.80
262;DHT22;114;48.260;10.988;2022-09-30T08:38:42;9.90;58.20
262;DHT22;114;48.260;10.988;2022-09-30T08:51:44;10.40;62.30
262;DHT22;114;48.260;10.988;2022-09-30T08:54:14;10.50;61.90
262;DHT22;114;48.260;10.988;2022-09-30T08:56:44;10.50;51.40
262;DHT22;114;48.260;10.988;2022-09-30T08:59:36;10.40;55.10
262;DHT22;114;48.260;10.988;2022-09-30T09:02:25;10.40;57.20
262;DHT22;114;48.260;10.988;2022-09-30T09:04:58;10.50;60.60
262;DHT22;114;48.260;10.988;2022-09-30T09:24:14;11.00;47.40
262;DHT22;114;48.260;10.988;2022-09-30T09:26:40;11.00;49.30
262;DHT22;114;48.260;10.988;2022-09-30T09:29:43;11.10;45.10
262;DHT22;114;48.260;10.988;2022-09-30T09:32:15;10.90;46.70
262;DHT22;114;48.260;10.988;2022-09-30T09:34:42;10.90;52.70
262;DHT22;114;48.260;10.988;2022-09-30T09:45:27;11.30;45.90
262;DHT22;114;48.260;10.988;2022-09-30T09:47:55;11.20;47.30
262;DHT22;114;48.260;10.988;2022-09-30T09:50:48;11.20;47.30
262;DHT22;114;48.260;10.988;2022-09-30T09:55:48;11.40;38.20
262;DHT22;114;48.260;10.988;2022-09-30T09:58:14;11.50;40.30
262;DHT22;114;48.260;10.988;2022-09-30T10:00:42;11.70;39.10
262;DHT22;114;48.260;10.988;2022-09-30T10:06:09;12.10;30.00
262;DHT22;114;48.260;10.988;2022-09-30T10:08:38;12.10;27.30
262;DHT22;114;48.260;10.988;2022-09-30T10:11:20;11.90;32.20
262;DHT22;114;48.260;10.988;2022-09-30T10:13:47;12.10;30.50
262;DHT22;114;48.260;10.988;2022-09-30T10:16:32;12.20;29.00
262;DHT22;114;48.260;10.988;2022-09-30T10:19:01;12.30;32.90
262;DHT22;114;48.260;10.988;2022-09-30T10:21:29;12.40;25.90
262;DHT22;114;48.260;10.988;2022-09-30T10:23:55;12.50;27.00
262;DHT22;114;48.260;10.988;2022-09-30T10:26:28;12.40;27.90
262;DHT22;114;48.260;10.988;2022-09-30T10:28:56;12.50;24.50
262;DHT22;114;48.260;10.988;2022-09-30T10:31:26;12.40;24.80
262;DHT22;114;48.260;10.988;2022-09-30T10:36:47;12.70;25.40
262;DHT22;114;48.260;10.988;2022-09-30T10:41:46;12.60;21.30
262;DHT22;114;48.260;10.988;2022-09-30T10:44:16;12.80;21.40
262;DHT22;114;48.260;10.988;2022-09-30T10:46:45;12.80;21.40
262;DHT22;114;48.260;10.988;2022-09-30T10:49:26;12.80;22.20
262;DHT22;114;48.260;10.988;2022-09-30T10:51:54;12.90;18.70
262;DHT22;114;48.260;10.988;2022-09-30T10:59:47;12.90;17.40
262;DHT22;114;48.260;10.988;2022-09-30T11:07:26;13.70;14.20
262;DHT22;114;48.260;10.988;2022-09-30T11:10:01;14.00;17.00
262;DHT22;114;48.260;10.988;2022-09-30T11:17:58;15.60;1.00
262;DHT22;114;48.260;10.988;2022-09-30T11:20:53;15.80;1.00
262;DHT22;114;48.260;10.988;2022-09-30T11:23:37;15.90;1.00
262;DHT22;114;48.260;10.988;2022-09-30T11:28:56;16.50;1.00
262;DHT22;114;48.260;10.988;2022-09-30T11:32:00;16.20;1.00
262;DHT22;114;48.260;10.988;2022-09-30T11:42:22;15.10;1.00
262;DHT22;114;48.260;10.988;2022-09-30T11:45:06;15.40;1.00
262;DHT22;114;48.260;10.988;2022-09-30T11:50:49;16.20;1.00
262;DHT22;114;48.260;10.988;2022-09-30T11:54:02;16.40;1.00
262;DHT22;114;48.260;10.988;2022-09-30T11:59:05;16.90;1.00
262;DHT22;114;48.260;10.988;2022-09-30T12:01:37;17.00;1.00
262;DHT22;114;48.260;10.988;2022-09-30T12:04:52;16.90;1.00
262;DHT22;114;48.260;10.988;2022-09-30T12:09:39;16.90;1.00
262;DHT22;114;48.260;10.988;2022-09-30T12:12:09;16.50;1.00
262;DHT22;114;48.260;10.988;2022-09-30T12:20:53;16.90;1.00
262;DHT22;114;48.260;10.988;2022-09-30T12:25:59;17.50;1.00
262;DHT22;114;48.260;10.988;2022-09-30T12:42:19;18.40;1.00
262;DHT22;114;48.260;10.988;2022-09-30T12:47:48;17.30;1.00
262;DHT22;114;48.260;10.988;2022-09-30T12:50:26;17.70;1.00
262;DHT22;114;48.260;10.988;2022-09-30T12:52:55;18.00;1.00
262;DHT22;114;48.260;10.988;2022-09-30T12:55:26;18.20;1.00
262;DHT22;114;48.260;10.988;2022-09-30T12:57:53;18.80;1.00
262;DHT22;114;48.260;10.988;2022-09-30T13:00:25;18.50;1.00
262;DHT22;114;48.260;10.988;2022-09-30T13:02:58;17.80;1.00
262;DHT22;114;48.260;10.988;2022-09-30T13:13:30;17.50;1.00
262;DHT22;114;48.260;10.988;2022-09-30T13:16:02;17.30;1.00
262;DHT22;114;48.260;10.988;2022-09-30T13:34:13;16.50;1.00
262;DHT22;114;48.260;10.988;2022-09-30T13:39:42;16.30;1.00
262;DHT22;114;48.260;10.988;2022-09-30T13:42:25;16.30;1.00
262;DHT22;114;48.260;10.988;2022-09-30T13:45:21;16.20;1.00
262;DHT22;114;48.260;10.988;2022-09-30T13:50:30;15.50;1.00
262;DHT22;114;48.260;10.988;2022-09-30T13:53:02;15.40;1.00
262;DHT22;114;48.260;10.988;2022-09-30T13:55:36;15.10;1.00
262;DHT22;114;48.260;10.988;2022-09-30T14:06:49;14.70;1.00
262;DHT22;114;48.260;10.988;2022-09-30T14:23:16;15.80;1.00
262;DHT22;114;48.260;10.988;2022-09-30T14:28:30;15.60;1.00
262;DHT22;114;48.260;10.988;2022-09-30T14:31:00;15.40;1.00
262;DHT22;114;48.260;10.988;2022-09-30T14:33:33;15.10;1.00
262;DHT22;114;48.260;10.988;2022-09-30T14:36:01;15.10;1.00
262;DHT22;114;48.260;10.988;2022-09-30T14:38:29;15.00;1.00
262;DHT22;114;48.260;10.988;2022-09-30T14:41:00;14.70;1.00
262;DHT22;114;48.260;10.988;2022-09-30T14:43:35;14.40;1.00
262;DHT22;114;48.260;10.988;2022-09-30T14:46:09;14.30;1.00
262;DHT22;114;48.260;10.988;2022-09-30T14:48:39;14.30;1.00
262;DHT22;114;48.260;10.988;2022-09-30T14:51:13;14.20;4.00
262;DHT22;114;48.260;10.988;2022-09-30T14:53:50;14.10;3.50
262;DHT22;114;48.260;10.988;2022-09-30T14:58:53;13.90;4.10
262;DHT22;114;48.260;10.988;2022-09-30T15:01:22;13.90;5.60
262;DHT22;114;48.260;10.988;2022-09-30T15:03:59;13.90;7.60
262;DHT22;114;48.260;10.988;2022-09-30T15:06:29;13.80;8.30
262;DHT22;114;48.260;10.988;2022-09-30T15:09:05;13.80;9.70
262;DHT22;114;48.260;10.988;2022-09-30T15:11:32;13.80;11.10
262;DHT22;114;48.260;10.988;2022-09-30T15:14:05;13.80;9.70
262;DHT22;114;48.260;10.988;2022-09-30T15:16:32;13.70;11.10
262;DHT22;114;48.260;10.988;2022-09-30T15:18:59;13.60;11.30
262;DHT22;114;48.260;10.988;2022-09-30T15:21:27;13.60;11.20
262;DHT22;114;48.260;10.988;2022-09-30T15:23:55;13.50;11.70
262;DHT22;114;48.260;10.988;2022-09-30T15:26:24;13.40;14.50
262;DHT22;114;48.260;10.988;2022-09-30T15:28:54;13.40;16.50
262;DHT22;114;48.260;10.988;2022-09-30T15:31:26;13.30;17.20
262;DHT22;114;48.260;10.988;2022-09-30T15:34:10;13.30;15.60
262;DHT22;114;48.260;10.988;2022-09-30T15:36:37;13.30;15.70
262;DHT22;114;48.260;10.988;2022-09-30T15:39:04;13.20;15.40
262;DHT22;114;48.260;10.988;2022-09-30T15:41:38;13.20;17.60
262;DHT22;114;48.260;10.988;2022-09-30T15:44:17;13.20;21.60
262;DHT22;114;48.260;10.988;2022-09-30T15:47:05;13.10;18.40
262;DHT22;114;48.260;10.988;2022-09-30T15:49:43;13.10;18.30
262;DHT22;114;48.260;10.988;2022-09-30T15:52:39;13.00;18.00
262;DHT22;114;48.260;10.988;2022-09-30T15:58:02;13.00;19.30
262;DHT22;114;48.260;10.988;2022-09-30T16:03:27;12.70;20.60
262;DHT22;114;48.260;10.988;2022-09-30T16:06:03;12.60;20.60
262;DHT22;114;48.260;10.988;2022-09-30T16:08:31;12.60;18.80
262;DHT22;114;48.260;10.988;2022-09-30T16:11:01;12.70;20.90
262;DHT22;114;48.260;10.988;2022-09-30T16:13:28;12.60;21.60
262;DHT22;114;48.260;10.988;2022-09-30T16:15:56;12.70;21.40
262;DHT22;114;48.260;10.988;2022-09-30T16:18:28;12.60;21.80
262;DHT22;114;48.260;10.988;2022-09-30T16:21:03;12.50;23.70
262;DHT22;114;48.260;10.988;2022-09-30T16:23:35;12.50;23.60
262;DHT22;114;48.260;10.988;2022-09-30T16:26:21;12.40;22.60
262;DHT22;114;48.260;10.988;2022-09-30T16:28:50;12.60;33.90
262;DHT22;114;48.260;10.988;2022-09-30T16:31:16;12.60;22.90
262;DHT22;114;48.260;10.988;2022-09-30T16:33:43;12.50;24.70
262;DHT22;114;48.260;10.988;2022-09-30T16:36:10;12.40;24.00
262;DHT22;114;48.260;10.988;2022-09-30T16:38:37;12.40;24.90
262;DHT22;114;48.260;10.988;2022-09-30T16:41:03;12.30;23.80
262;DHT22;114;48.260;10.988;2022-09-30T16:43:30;12.30;25.10
262;DHT22;114;48.260;10.988;2022-09-30T16:45:59;12.20;26.00
262;DHT22;114;48.260;10.988;2022-09-30T16:48:25;12.20;27.60
262;DHT22;114;48.260;10.988;2022-09-30T16:51:14;12.20;29.10
262;DHT22;114;48.260;10.988;2022-09-30T16:53:41;12.20;31.80
262;DHT22;114;48.260;10.988;2022-09-30T16:56:21;12.20;33.10
262;DHT22;114;48.260;10.988;2022-09-30T16:58:47;12.20;32.10
262;DHT22;114;48.260;10.988;2022-09-30T17:01:23;12.10;29.70
262;DHT22;114;48.260;10.988;2022-09-30T17:03:54;12.10;29.20
262;DHT22;114;48.260;10.988;2022-09-30T17:06:25;12.10;31.60
262;DHT22;114;48.260;10.988;2022-09-30T17:08:52;12.10;33.50
262;DHT22;114;48.260;10.988;2022-09-30T17:11:19;12.00;34.90
262;DHT22;114;48.260;10.988;2022-09-30T17:13:51;12.00;36.40
262;DHT22;114;48.260;10.988;2022-09-30T17:16:17;12.00;39.90
262;DHT22;114;48.260;10.988;2022-09-30T17:18:43;11.90;39.20
262;DHT22;114;48.260;10.988;2022-09-30T17:21:09;11.90;39.70
262;DHT22;114;48.260;10.988;2022-09-30T17:23:36;11.90;40.70
262;DHT22;114;48.260;10.988;2022-09-30T17:26:05;11.90;41.00
262;DHT22;114;48.260;10.988;2022-09-30T17:28:41;11.90;40.70
262;DHT22;114;48.260;10.988;2022-09-30T17:31:12;11.80;42.30
262;DHT22;114;48.260;10.988;2022-09-30T17:33:40;11.80;43.00
262;DHT22;114;48.260;10.988;2022-09-30T17:36:19;11.70;45.10
262;DHT22;114;48.260;10.988;2022-09-30T17:38:46;11.60;47.60
262;DHT22;114;48.260;10.988;2022-09-30T17:41:13;11.50;49.80
262;DHT22;114;48.260;10.988;2022-09-30T17:43:58;11.50;51.10
262;DHT22;114;48.260;10.988;2022-09-30T17:46:26;11.40;52.60
262;DHT22;114;48.260;10.988;2022-09-30T17:48:56;11.40;53.90
262;DHT22;114;48.260;10.988;2022-09-30T17:51:23;11.30;54.10
262;DHT22;114;48.260;10.988;2022-09-30T17:53:51;11.30;55.10
262;DHT22;114;48.260;10.988;2022-09-30T17:56:19;11.30;55.20
262;DHT22;114;48.260;10.988;2022-09-30T17:58:47;11.30;53.60
262;DHT22;114;48.260;10.988;2022-09-30T18:01:17;11.30;55.70
262;DHT22;114;48.260;10.988;2022-09-30T18:03:44;11.30;58.20
262;DHT22;114;48.260;10.988;2022-09-30T18:06:11;11.30;60.70
262;DHT22;114;48.260;10.988;2022-09-30T18:08:39;11.30;61.80
262;DHT22;114;48.260;10.988;2022-09-30T18:11:05;11.30;63.80
262;DHT22;114;48.260;10.988;2022-09-30T18:13:31;11.20;62.70
262;DHT22;114;48.260;10.988;2022-09-30T18:15:57;11.20;61.30
262;DHT22;114;48.260;10.988;2022-09-30T18:18:27;11.20;60.90
262;DHT22;114;48.260;10.988;2022-09-30T18:20:58;11.20;62.30
262;DHT22;114;48.260;10.988;2022-09-30T18:23:24;11.20;63.30
262;DHT22;114;48.260;10.988;2022-09-30T18:25:54;11.20;62.50
262;DHT22;114;48.260;10.988;2022-09-30T18:28:22;11.20;62.90
262;DHT22;114;48.260;10.988;2022-09-30T18:30:48;11.10;64.10
262;DHT22;114;48.260;10.988;2022-09-30T18:33:35;11.10;64.10
262;DHT22;114;48.260;10.988;2022-09-30T18:36:03;11.10;64.70
262;DHT22;114;48.260;10.988;2022-09-30T18:38:32;11.10;65.40
262;DHT22;114;48.260;10.988;2022-09-30T18:40:58;11.10;67.20
262;DHT22;114;48.260;10.988;2022-09-30T18:43:25;11.00;68.50
262;DHT22;114;48.260;10.988;2022-09-30T18:45:55;11.00;70.40
262;DHT22;114;48.260;10.988;2022-09-30T18:48:23;11.00;71.10
262;DHT22;114;48.260;10.988;2022-09-30T18:50:50;11.00;70.50
262;DHT22;114;48.260;10.988;2022-09-30T18:53:20;11.00;70.50
262;DHT22;114;48.260;10.988;2022-09-30T18:55:48;11.00;71.60
262;DHT22;114;48.260;10.988;2022-09-30T18:58:14;11.00;71.10
262;DHT22;114;48.260;10.988;2022-09-30T19:00:42;11.00;70.00
262;DHT22;114;48.260;10.988;2022-09-30T19:03:10;11.00;70.30
262;DHT22;114;48.260;10.988;2022-09-30T19:05:40;10.90;69.70
262;DHT22;114;48.260;10.988;2022-09-30T19:08:07;10.90;70.30
262;DHT22;114;48.260;10.988;2022-09-30T19:10:39;10.90;71.30
262;DHT22;114;48.260;10.988;2022-09-30T19:13:07;10.90;72.30
262;DHT22;114;48.260;10.988;2022-09-30T19:15:37;10.90;72.50
262;DHT22;114;48.260;10.988;2022-09-30T19:18:05;11.00;72.20
262;DHT22;114;48.260;10.988;2022-09-30T19:20:36;11.00;72.60
262;DHT22;114;48.260;10.988;2022-09-30T19:23:03;10.90;72.30
262;DHT22;114;48.260;10.988;2022-09-30T19:25:31;10.90;74.10
262;DHT22;114;48.260;10.988;2022-09-30T19:27:59;10.90;74.10
262;DHT22;114;48.260;10.988;2022-09-30T19:30:30;10.90;73.90
262;DHT22;114;48.260;10.988;2022-09-30T19:32:58;10.90;75.80
262;DHT22;114;48.260;10.988;2022-09-30T19:35:25;10.90;76.70
262;DHT22;114;48.260;10.988;2022-09-30T19:37:51;10.90;77.20
262;DHT22;114;48.260;10.988;2022-09-30T19:40:19;10.80;77.50
262;DHT22;114;48.260;10.988;2022-09-30T19:42:45;10.80;77.70
262;DHT22;114;48.260;10.988;2022-09-30T19:45:17;10.70;77.90
262;DHT22;114;48.260;10.988;2022-09-30T19:47:49;10.70;78.80
262;DHT22;114;48.260;10.988;2022-09-30T19:50:15;10.60;79.90
262;DHT22;114;48.260;10.988;2022-09-30T19:52:41;10.60;81.20
262;DHT22;114;48.260;10.988;2022-09-30T19:55:08;10.60;82.10
262;DHT22;114;48.260;10.988;2022-09-30T19:57:49;10.50;83.50
262;DHT22;114;48.260;10.988;2022-09-30T20:00:15;10.60;83.90
262;DHT22;114;48.260;10.988;2022-09-30T20:02:41;10.50;84.10
262;DHT22;114;48.260;10.988;2022-09-30T20:05:07;10.50;84.30
262;DHT22;114;48.260;10.988;2022-09-30T20:07:33;10.40;86.30
262;DHT22;114;48.260;10.988;2022-09-30T20:09:59;10.30;87.50
262;DHT22;114;48.260;10.988;2022-09-30T20:12:26;10.20;88.90
262;DHT22;114;48.260;10.988;2022-09-30T20:14:52;10.10;90.00
262;DHT22;114;48.260;10.988;2022-09-30T20:17:37;10.00;90.90
262;DHT22;114;48.260;10.988;2022-09-30T20:20:03;9.90;91.30
262;DHT22;114;48.260;10.988;2022-09-30T20:22:48;9.70;91.60
262;DHT22;114;48.260;10.988;2022-09-30T20:25:14;9.70;92.00
262;DHT22;114;48.260;10.988;2022-09-30T20:27:39;9.50;92.20
262;DHT22;114;48.260;10.988;2022-09-30T20:30:10;9.40;92.70
262;DHT22;114;48.260;10.988;2022-09-30T20:32:36;9.30;93.50
262;DHT22;114;48.260;10.988;2022-09-30T20:35:02;9.00;93.90
262;DHT22;114;48.260;10.988;2022-09-30T20:37:28;9.20;94.70
262;DHT22;114;48.260;10.988;2022-09-30T20:39:54;9.10;95.10
262;DHT22;114;48.260;10.988;2022-09-30T20:42:22;9.10;96.20
262;DHT22;114;48.260;10.988;2022-09-30T20:44:49;9.10;96.80
262;DHT22;114;48.260;10.988;2022-09-30T20:47:15;9.00;97.10
262;DHT22;114;48.260;10.988;2022-09-30T20:49:41;9.00;97.50
262;DHT22;114;48.260;10.988;2022-09-30T20:52:07;9.00;98.40
262;DHT22;114;48.260;10.988;2022-09-30T20:54:33;8.80;98.40
262;DHT22;114;48.260;10.988;2022-09-30T20:57:00;8.80;98.60
262;DHT22;114;48.260;10.988;2022-09-30T20:59:27;8.80;99.60
262;DHT22;114;48.260;10.988;2022-09-30T21:01:53;8.80;99.90
262;DHT22;114;48.260;10.988;2022-09-30T21:04:19;8.80;99.90
262;DHT22;114;48.260;10.988;2022-09-30T21:06:47;8.70;99.90